Hopkins Park, Illinois
Current Conditions -  °F | °C
As of 8:15 AM on Tuesday 27 Jan 2015 (Local Time) from KIKK Reporting Station
Haze Haze  
Wind Chill: 20°   Ceiling: 400
Heat Index: 27°   Visibility: 2.5mi
Dew Point: 25°   Wind: 6mph
Humidity: 94%   Direction: 40°NE
Pressure: 30.09"   Gusts: NA
Location:  41.06°N, 87.63°W
Report Text: KIKK 271415Z AUTO 04005KT 2 1/2SM BR OVC004 M03/M04 A3009 RMK AO2 T10301038
Loading
Personal Weather Stations






























Interactive Weather Map New forecast layout! Learn more

10-Day Weather Forecast

Advertisements
Track Severe Weather on mobile